createdAt,value
2023-02-05T00:01:43.395Z,122.17
2023-02-05T00:04:11.144Z,116.33
2023-02-05T00:06:38.830Z,124.90
2023-02-05T00:09:07.977Z,136.03
2023-02-05T00:11:35.716Z,126.03
2023-02-05T00:14:03.481Z,122.93
2023-02-05T00:16:31.423Z,119.80
2023-02-05T00:18:59.114Z,118.63
2023-02-05T00:21:26.777Z,112.73
2023-02-05T00:23:55.054Z,120.03
2023-02-05T00:26:23.997Z,124.57
2023-02-05T00:28:51.621Z,116.20
2023-02-05T00:31:22.004Z,129.70
2023-02-05T00:33:51.708Z,129.30
2023-02-05T00:36:20.662Z,127.80
2023-02-05T00:38:48.889Z,129.27
2023-02-05T00:41:17.292Z,118.47
2023-02-05T00:43:46.745Z,130.80
2023-02-05T00:46:15.089Z,118.63
2023-02-05T00:48:44.083Z,136.03
2023-02-05T00:51:12.208Z,123.33
2023-02-05T00:53:40.780Z,134.63
2023-02-05T00:56:08.884Z,133.73
2023-02-05T00:58:36.788Z,138.87
2023-02-05T01:01:06.128Z,129.90
2023-02-05T01:03:34.279Z,151.50
2023-02-05T01:06:03.174Z,142.60
2023-02-05T01:08:30.943Z,157.13
2023-02-05T01:10:58.648Z,147.90
2023-02-05T01:13:26.632Z,149.37
2023-02-05T01:15:55.365Z,156.57
2023-02-05T01:18:24.469Z,173.47
2023-02-05T01:20:52.740Z,156.63
2023-02-05T01:23:20.454Z,169.50
2023-02-05T01:25:48.238Z,151.97
2023-02-05T01:28:16.110Z,156.37
2023-02-05T01:30:48.450Z,157.70
2023-02-05T01:33:16.848Z,160.67
2023-02-05T01:35:46.015Z,177.00
2023-02-05T01:38:14.168Z,156.20
2023-02-05T01:40:42.145Z,147.80
2023-02-05T01:43:13.216Z,163.53
2023-02-05T01:46:25.087Z,145.60
2023-02-05T01:48:58.921Z,156.43
2023-02-05T01:51:31.088Z,145.63
2023-02-05T01:53:58.968Z,143.97
2023-02-05T01:56:30.515Z,153.87
2023-02-05T01:59:01.554Z,134.40
2023-02-05T02:01:30.092Z,125.67
2023-02-05T02:04:00.985Z,129.27
2023-02-05T02:06:29.947Z,113.93
2023-02-05T02:08:58.588Z,108.27
2023-02-05T02:11:29.149Z,103.97
2023-02-05T02:14:00.332Z,104.13
2023-02-05T02:16:29.820Z,101.93
2023-02-05T02:18:58.135Z,97.07
2023-02-05T02:21:57.181Z,102.73
2023-02-05T02:25:03.340Z,90.83
2023-02-05T02:27:46.596Z,86.83
2023-02-05T02:30:21.274Z,91.73
2023-02-05T02:32:56.386Z,86.03
2023-02-05T02:35:29.429Z,82.00
2023-02-05T02:38:03.992Z,92.43
2023-02-05T02:40:38.686Z,87.80
2023-02-05T02:43:14.410Z,96.93
2023-02-05T02:45:48.762Z,90.77
2023-02-05T02:48:19.691Z,88.27
2023-02-05T02:50:50.879Z,86.90
2023-02-05T02:53:21.491Z,97.03
2023-02-05T02:55:51.249Z,98.03
2023-02-05T02:58:25.306Z,97.07
2023-02-05T03:00:55.498Z,95.53
2023-02-05T03:03:27.109Z,90.50
2023-02-05T03:05:59.255Z,93.60
2023-02-05T03:08:31.923Z,89.60
2023-02-05T03:11:03.327Z,96.07
2023-02-05T03:13:33.244Z,99.57
2023-02-05T03:16:03.262Z,99.27
2023-02-05T03:18:32.360Z,97.83
2023-02-05T03:21:03.189Z,98.87
2023-02-05T03:23:32.638Z,95.43
2023-02-05T03:26:00.356Z,94.50
2023-02-05T03:28:47.375Z,98.57
2023-02-05T03:31:21.766Z,105.20
2023-02-05T03:34:05.049Z,100.13
2023-02-05T03:36:41.692Z,104.43
2023-02-05T03:39:19.789Z,108.13
2023-02-05T03:41:58.043Z,102.57
2023-02-05T03:44:50.246Z,110.43
2023-02-05T03:47:28.387Z,93.40
2023-02-05T03:50:03.887Z,105.10
2023-02-05T03:52:35.685Z,92.33
2023-02-05T03:55:09.409Z,106.37
2023-02-05T03:57:43.642Z,112.43
2023-02-05T04:00:14.899Z,108.13
2023-02-05T04:02:44.925Z,106.67
2023-02-05T04:05:17.395Z,102.60
2023-02-05T04:07:45.374Z,110.90
2023-02-05T04:10:13.804Z,109.80
2023-02-05T04:12:42.086Z,107.13
2023-02-05T04:15:10.834Z,105.83
2023-02-05T04:17:42.380Z,117.73
2023-02-05T04:20:11.284Z,103.80
2023-02-05T04:22:38.976Z,108.37
2023-02-05T04:25:07.524Z,115.77
2023-02-05T04:27:36.074Z,123.10
2023-02-05T04:30:06.716Z,103.00
2023-02-05T04:32:37.524Z,116.87
2023-02-05T04:35:07.382Z,116.07
2023-02-05T04:37:35.013Z,103.00
2023-02-05T04:40:02.706Z,117.13
2023-02-05T04:42:30.461Z,121.77
2023-02-05T04:44:58.127Z,113.47
2023-02-05T04:47:25.893Z,107.33
2023-02-05T04:49:53.555Z,114.87
2023-02-05T04:52:22.528Z,106.47
2023-02-05T04:54:50.157Z,114.10
2023-02-05T04:57:17.740Z,108.67
2023-02-05T04:59:45.357Z,118.50
2023-02-05T05:02:13.102Z,108.03
2023-02-05T05:04:43.103Z,105.07
2023-02-05T05:07:11.158Z,105.93
2023-02-05T05:09:40.445Z,99.40
2023-02-05T05:12:08.085Z,109.47
2023-02-05T05:14:37.480Z,118.47
2023-02-05T05:17:05.377Z,108.33
2023-02-05T05:19:33.134Z,119.27
2023-02-05T05:22:01.081Z,129.03
2023-02-05T05:24:28.926Z,107.80
2023-02-05T05:26:57.931Z,112.73
2023-02-05T05:29:25.560Z,115.20
2023-02-05T05:31:54.950Z,127.77
2023-02-05T05:34:22.671Z,116.43
2023-02-05T05:36:50.392Z,113.60
2023-02-05T05:39:35.844Z,123.20
2023-02-05T05:42:22.574Z,107.30
2023-02-05T05:44:52.892Z,111.77
2023-02-05T05:47:21.088Z,112.43
2023-02-05T05:49:49.035Z,109.17
2023-02-05T05:52:16.665Z,109.33
2023-02-05T05:54:44.275Z,118.93
2023-02-05T05:57:13.412Z,123.57
2023-02-05T05:59:41.081Z,117.77
2023-02-05T06:02:08.765Z,120.73
2023-02-05T06:04:36.483Z,111.23
2023-02-05T06:07:04.373Z,115.87
2023-02-05T06:09:32.202Z,119.70
2023-02-05T06:11:59.842Z,119.70
2023-02-05T06:14:28.840Z,111.67
2023-02-05T06:16:56.519Z,109.50
2023-02-05T06:19:24.292Z,101.57
2023-02-05T06:21:52.062Z,122.07
2023-02-05T06:24:19.657Z,116.90
2023-02-05T06:26:47.324Z,106.50
2023-02-05T06:29:15.015Z,108.33
2023-02-05T06:31:44.147Z,111.30
2023-02-05T06:34:11.938Z,111.50
2023-02-05T06:36:41.472Z,106.43
2023-02-05T06:39:09.615Z,106.30
2023-02-05T06:41:37.250Z,110.80
2023-02-05T06:44:05.164Z,129.53
2023-02-05T06:46:32.874Z,113.33
2023-02-05T06:49:01.910Z,119.73
2023-02-05T06:51:29.608Z,118.13
2023-02-05T06:53:57.420Z,126.57
2023-02-05T06:56:25.175Z,115.20
2023-02-05T06:58:52.931Z,131.03
2023-02-05T07:01:20.635Z,137.83
2023-02-05T07:03:48.517Z,134.43
2023-02-05T07:06:18.009Z,127.50
2023-02-05T07:08:47.726Z,137.90
2023-02-05T07:11:15.411Z,130.07
2023-02-05T07:13:43.545Z,127.03
2023-02-05T07:16:11.261Z,135.27
2023-02-05T07:18:38.974Z,125.23
2023-02-05T07:21:07.862Z,111.00
2023-02-05T07:23:37.568Z,113.93
2023-02-05T07:26:08.925Z,120.47
2023-02-05T07:28:37.286Z,121.10
2023-02-05T07:31:06.312Z,118.13
2023-02-05T07:33:34.657Z,132.47
2023-02-05T07:36:03.722Z,134.83
2023-02-05T07:38:31.346Z,129.80
2023-02-05T07:41:00.336Z,138.37
2023-02-05T07:43:27.986Z,128.93
2023-02-05T07:45:59.131Z,138.93
2023-02-05T07:48:26.873Z,143.77
2023-02-05T07:50:54.900Z,151.23
2023-02-05T07:53:22.971Z,147.03
2023-02-05T07:55:50.610Z,150.30
2023-02-05T07:58:20.400Z,147.83
2023-02-05T08:00:48.083Z,142.80
2023-02-05T08:03:15.897Z,146.27
2023-02-05T08:05:43.710Z,138.23
2023-02-05T08:08:12.916Z,144.30
2023-02-05T08:10:40.668Z,131.97
2023-02-05T08:13:08.396Z,142.77
2023-02-05T08:15:39.083Z,143.07
2023-02-05T08:18:06.888Z,143.57
2023-02-05T08:20:34.961Z,131.93
2023-02-05T08:23:05.001Z,138.67
2023-02-05T08:25:32.866Z,135.57
2023-02-05T08:28:00.730Z,137.17
2023-02-05T08:30:28.412Z,123.17
2023-02-05T08:32:57.371Z,131.97
2023-02-05T08:35:25.067Z,122.93
2023-02-05T08:37:52.808Z,128.03
2023-02-05T08:40:20.717Z,137.30
2023-02-05T08:42:52.477Z,121.27
2023-02-05T08:45:20.849Z,128.13
2023-02-05T08:47:48.581Z,123.00
2023-02-05T08:50:18.860Z,124.70
2023-02-05T08:52:46.766Z,122.60
2023-02-05T08:55:15.410Z,129.63
2023-02-05T08:57:43.867Z,122.63
2023-02-05T09:00:12.955Z,128.63
2023-02-05T09:02:42.495Z,124.33
2023-02-05T09:05:10.566Z,126.87
2023-02-05T09:07:40.807Z,125.23
2023-02-05T09:10:10.203Z,122.17
2023-02-05T09:12:38.171Z,116.67
2023-02-05T09:15:06.325Z,130.03
2023-02-05T09:17:34.117Z,119.27
2023-02-05T09:20:01.924Z,140.47
2023-02-05T09:22:30.148Z,131.80
2023-02-05T09:25:02.078Z,128.97
2023-02-05T09:27:30.461Z,129.70
2023-02-05T09:29:58.147Z,125.83
2023-02-05T09:32:25.909Z,126.03
2023-02-05T09:34:53.708Z,126.73
2023-02-05T09:37:22.482Z,127.37
2023-02-05T09:40:19.698Z,130.33
2023-02-05T09:42:47.565Z,120.87
2023-02-05T09:45:34.120Z,122.33
2023-02-05T09:48:14.962Z,121.13
2023-02-05T09:50:43.757Z,128.07
2023-02-05T09:53:17.552Z,131.17
2023-02-05T09:55:47.209Z,138.60
2023-02-05T09:58:19.324Z,130.97
2023-02-05T10:00:49.588Z,131.83
2023-02-05T10:03:26.467Z,133.77
2023-02-05T10:06:14.105Z,131.23
2023-02-05T10:08:51.392Z,126.63
2023-02-05T10:11:26.604Z,135.60
2023-02-05T10:14:06.118Z,137.23
2023-02-05T10:16:58.060Z,133.53
2023-02-05T10:19:41.264Z,136.40
2023-02-05T10:22:18.130Z,139.37
2023-02-05T10:25:03.692Z,135.27
2023-02-05T10:27:40.204Z,138.80
2023-02-05T10:30:16.965Z,140.83
2023-02-05T10:32:55.894Z,132.40
2023-02-05T10:35:27.140Z,133.43
2023-02-05T10:37:57.762Z,139.17
2023-02-05T10:40:29.354Z,143.23
2023-02-05T10:43:03.864Z,140.53
2023-02-05T10:45:33.784Z,150.40
2023-02-05T10:48:43.226Z,142.37
2023-02-05T10:51:15.754Z,137.13
2023-02-05T10:53:43.508Z,151.33
2023-02-05T10:56:17.035Z,146.00
2023-02-05T10:58:48.614Z,154.57
2023-02-05T11:01:20.961Z,140.53
2023-02-05T11:03:58.967Z,156.10
2023-02-05T11:06:29.799Z,142.40
2023-02-05T11:08:57.759Z,146.83
2023-02-05T11:11:29.024Z,144.07
2023-02-05T11:13:59.767Z,146.37
2023-02-05T11:16:39.837Z,143.83
2023-02-05T11:19:21.007Z,137.63
2023-02-05T11:21:53.007Z,138.93
2023-02-05T11:24:30.565Z,144.50
2023-02-05T11:27:37.945Z,150.17
2023-02-05T11:33:29.485Z,129.17
2023-02-05T11:36:00.112Z,145.40
2023-02-05T11:38:34.569Z,140.50
2023-02-05T11:41:05.173Z,146.10
2023-02-05T11:43:35.283Z,146.47
2023-02-05T11:46:07.749Z,157.30
2023-02-05T11:48:40.733Z,153.17
2023-02-05T11:51:10.625Z,146.13
2023-02-05T11:53:46.000Z,160.70
2023-02-05T11:56:22.788Z,159.20
2023-02-05T11:59:00.774Z,160.87
2023-02-05T12:01:32.346Z,158.20
2023-02-05T12:04:03.542Z,158.77
2023-02-05T12:06:36.341Z,163.20
2023-02-05T12:09:04.369Z,160.13
2023-02-05T12:12:11.860Z,164.70
2023-02-05T12:14:44.791Z,156.93
2023-02-05T12:17:27.955Z,164.57
2023-02-05T12:20:04.303Z,160.30
2023-02-05T12:22:50.158Z,160.83
2023-02-05T12:25:25.711Z,162.03
2023-02-05T12:28:09.150Z,164.03
2023-02-05T12:30:49.533Z,176.10
2023-02-05T12:33:43.927Z,172.00
2023-02-05T12:36:30.530Z,171.67
2023-02-05T12:39:10.168Z,179.40
2023-02-05T12:41:45.447Z,176.97
2023-02-05T12:44:31.926Z,169.47
2023-02-05T12:47:09.961Z,170.60
2023-02-05T12:49:55.495Z,181.37
2023-02-05T12:52:36.237Z,173.50
2023-02-05T12:55:16.830Z,159.37
2023-02-05T12:57:50.726Z,177.53
2023-02-05T13:00:22.967Z,168.63
2023-02-05T13:03:01.804Z,175.17
2023-02-05T13:05:34.127Z,163.37
2023-02-05T13:08:08.230Z,179.17
2023-02-05T13:10:44.973Z,187.60
2023-02-05T13:13:18.112Z,168.73
2023-02-05T13:15:49.240Z,170.97
2023-02-05T13:18:23.357Z,171.10
2023-02-05T13:21:13.776Z,177.43
2023-02-05T13:24:02.416Z,177.57
2023-02-05T13:26:53.242Z,176.83
2023-02-05T13:29:24.313Z,176.33
2023-02-05T13:31:57.085Z,175.10
2023-02-05T13:34:27.060Z,183.27
2023-02-05T13:37:25.550Z,167.77
2023-02-05T13:40:16.329Z,174.20
2023-02-05T13:43:01.590Z,167.40
2023-02-05T13:46:02.653Z,179.33
2023-02-05T13:48:52.852Z,167.70
2023-02-05T13:51:38.009Z,167.13
2023-02-05T13:54:22.571Z,170.03
2023-02-05T13:57:02.904Z,177.90
2023-02-05T13:59:36.690Z,154.63
2023-02-05T14:02:05.524Z,180.53
2023-02-05T14:04:40.141Z,187.13
2023-02-05T14:07:14.125Z,177.07
2023-02-05T14:09:44.575Z,177.13
2023-02-05T14:12:23.169Z,179.90
2023-02-05T14:15:38.723Z,172.20
2023-02-05T14:18:07.118Z,161.47
2023-02-05T14:20:39.833Z,161.80
2023-02-05T14:23:37.858Z,165.27
2023-02-05T14:26:14.569Z,161.33
2023-02-05T14:28:48.228Z,176.30
2023-02-05T14:31:58.859Z,165.63
2023-02-05T14:34:58.665Z,175.90
2023-02-05T14:37:31.832Z,169.10
2023-02-05T14:40:00.466Z,166.80
2023-02-05T14:42:31.443Z,169.17
2023-02-05T14:45:01.455Z,180.57
2023-02-05T14:47:35.682Z,178.97
2023-02-05T14:50:07.878Z,171.67
2023-02-05T14:52:39.029Z,179.87
2023-02-05T14:55:17.869Z,170.23
2023-02-05T14:57:50.328Z,171.43
2023-02-05T15:00:33.582Z,169.63
2023-02-05T15:03:33.162Z,170.80
2023-02-05T15:06:05.995Z,158.90
2023-02-05T15:08:53.959Z,169.83
2023-02-05T15:11:34.343Z,159.43
2023-02-05T15:14:33.139Z,159.50
2023-02-05T15:17:47.187Z,153.27
2023-02-05T15:20:22.013Z,141.33
2023-02-05T15:22:55.630Z,157.03
2023-02-05T15:25:36.448Z,146.20
2023-02-05T15:28:09.336Z,160.80
2023-02-05T15:30:48.876Z,157.37
2023-02-05T15:33:23.246Z,166.47
2023-02-05T15:35:53.525Z,156.17
2023-02-05T15:38:27.948Z,160.77
2023-02-05T15:40:57.346Z,173.93
2023-02-05T15:43:26.965Z,165.77
2023-02-05T15:46:01.564Z,168.77
2023-02-05T15:48:31.524Z,163.63
2023-02-05T15:51:03.585Z,173.30
2023-02-05T15:53:35.199Z,171.30
2023-02-05T15:56:08.612Z,174.33
2023-02-05T15:58:36.576Z,192.37
2023-02-05T16:01:04.833Z,200.40
2023-02-05T16:03:34.555Z,179.30
2023-02-05T16:06:03.810Z,181.93
2023-02-05T16:08:31.597Z,186.20
2023-02-05T16:11:01.967Z,195.63
2023-02-05T16:13:30.354Z,205.13
2023-02-05T16:16:05.271Z,206.33
2023-02-05T16:18:40.443Z,202.97
2023-02-05T16:21:18.791Z,192.30
2023-02-05T16:23:54.917Z,191.10
2023-02-05T16:26:27.197Z,185.83
2023-02-05T16:28:58.983Z,188.87
2023-02-05T16:31:28.925Z,181.23
2023-02-05T16:34:00.336Z,192.53
2023-02-05T16:36:32.555Z,192.13
2023-02-05T16:39:03.005Z,177.93
2023-02-05T16:41:35.416Z,188.97
2023-02-05T16:44:06.036Z,200.17
2023-02-05T16:46:34.785Z,184.07
2023-02-05T16:49:04.458Z,186.97
2023-02-05T16:51:39.149Z,196.43
2023-02-05T16:54:27.515Z,198.63
2023-02-05T16:57:00.536Z,189.23
2023-02-05T16:59:33.062Z,182.50
2023-02-05T17:02:01.269Z,190.37
2023-02-05T17:04:32.988Z,181.03
2023-02-05T17:07:04.053Z,175.43
2023-02-05T17:09:35.367Z,172.77
2023-02-05T17:12:41.352Z,180.97
2023-02-05T17:15:41.926Z,155.77
2023-02-05T17:18:24.383Z,169.73
2023-02-05T17:20:52.427Z,156.93
2023-02-05T17:23:21.436Z,165.83
2023-02-05T17:25:54.719Z,165.73
2023-02-05T17:28:25.465Z,161.97
2023-02-05T17:30:55.066Z,163.33
2023-02-05T17:33:25.073Z,156.00
2023-02-05T17:35:52.861Z,154.47
2023-02-05T17:38:23.397Z,166.47
2023-02-05T17:41:11.446Z,149.70
2023-02-05T17:43:39.499Z,147.93
2023-02-05T17:46:12.785Z,140.00
2023-02-05T17:48:40.623Z,146.63
2023-02-05T17:51:12.249Z,139.67
2023-02-05T17:53:41.278Z,143.60
2023-02-05T17:56:09.771Z,145.17
2023-02-05T17:58:37.468Z,148.57
2023-02-05T18:01:05.499Z,147.17
2023-02-05T18:03:33.225Z,152.20
2023-02-05T18:06:01.254Z,151.07
2023-02-05T18:08:29.750Z,140.77
2023-02-05T18:10:58.873Z,155.30
2023-02-05T18:13:26.679Z,137.80
2023-02-05T18:16:02.654Z,156.80
2023-02-05T18:18:31.094Z,139.53
2023-02-05T18:20:59.413Z,147.27
2023-02-05T18:23:29.460Z,146.33
2023-02-05T18:25:59.195Z,136.47
2023-02-05T18:28:28.139Z,139.77
2023-02-05T18:31:01.312Z,144.03
2023-02-05T18:33:29.421Z,149.00
2023-02-05T18:36:01.102Z,147.70
2023-02-05T18:38:30.747Z,139.17
2023-02-05T18:41:06.967Z,141.47
2023-02-05T18:43:36.256Z,144.93
2023-02-05T18:46:07.722Z,150.83
2023-02-05T18:48:35.903Z,148.80
2023-02-05T18:51:07.330Z,146.30
2023-02-05T18:53:35.900Z,148.27
2023-02-05T18:56:06.626Z,146.80
2023-02-05T18:58:34.769Z,147.07
2023-02-05T19:01:09.094Z,144.03
2023-02-05T19:03:37.732Z,140.87
2023-02-05T19:06:06.547Z,138.40
2023-02-05T19:08:34.290Z,147.47
2023-02-05T19:11:08.421Z,153.80
2023-02-05T19:13:37.350Z,147.97
2023-02-05T19:16:06.560Z,134.53
2023-02-05T19:18:34.428Z,141.53
2023-02-05T19:21:06.428Z,146.60
2023-02-05T19:23:34.455Z,147.53
2023-02-05T19:26:03.747Z,146.70
2023-02-05T19:28:32.856Z,132.57
2023-02-05T19:31:03.614Z,147.77
2023-02-05T19:33:31.856Z,138.40
2023-02-05T19:36:00.285Z,141.87
2023-02-05T19:38:28.429Z,139.10
2023-02-05T19:40:56.325Z,136.17
2023-02-05T19:43:24.282Z,133.00
2023-02-05T19:45:53.228Z,130.30
2023-02-05T19:48:20.955Z,140.20
2023-02-05T19:50:48.575Z,135.90
2023-02-05T19:53:18.418Z,128.10
2023-02-05T19:55:46.278Z,131.47
2023-02-05T19:58:14.628Z,121.67
2023-02-05T20:00:42.352Z,130.73
2023-02-05T20:03:11.326Z,120.80
2023-02-05T20:05:38.955Z,117.67
2023-02-05T20:08:06.829Z,124.80
2023-02-05T20:10:34.758Z,120.17
2023-02-05T20:13:02.681Z,117.33
2023-02-05T20:15:30.356Z,117.37
2023-02-05T20:17:58.649Z,109.90
2023-02-05T20:20:33.499Z,108.23
2023-02-05T20:23:01.668Z,110.73
2023-02-05T20:25:29.342Z,116.00
2023-02-05T20:27:56.970Z,109.10
2023-02-05T20:30:42.182Z,115.93
2023-02-05T20:33:09.828Z,107.07
2023-02-05T20:35:39.158Z,107.17
2023-02-05T20:38:07.316Z,121.87
2023-02-05T20:40:35.386Z,109.87
2023-02-05T20:43:04.646Z,122.17
2023-02-05T20:45:33.731Z,129.00
2023-02-05T20:48:01.567Z,136.87
2023-02-05T20:50:29.187Z,126.77
2023-02-05T20:52:58.434Z,122.30
2023-02-05T20:55:26.168Z,122.33
2023-02-05T20:57:53.896Z,120.07
2023-02-05T21:00:23.388Z,121.97
2023-02-05T21:02:51.660Z,126.23
2023-02-05T21:05:19.476Z,116.47
2023-02-05T21:07:47.179Z,123.00
2023-02-05T21:10:17.812Z,120.67
2023-02-05T21:12:45.712Z,130.27
2023-02-05T21:15:13.322Z,123.10
2023-02-05T21:17:42.787Z,124.27
2023-02-05T21:20:11.071Z,120.20
2023-02-05T21:22:38.689Z,116.30
2023-02-05T21:25:07.159Z,118.30
2023-02-05T21:27:36.150Z,123.97
2023-02-05T21:30:04.162Z,124.43
2023-02-05T21:32:33.075Z,112.53
2023-02-05T21:35:00.838Z,129.00
2023-02-05T21:37:28.640Z,121.67
2023-02-05T21:40:08.455Z,118.77
2023-02-05T21:42:38.793Z,115.90
2023-02-05T21:45:07.288Z,122.57
2023-02-05T21:47:35.120Z,117.73
2023-02-05T21:50:02.987Z,121.17
2023-02-05T21:52:30.712Z,121.70
2023-02-05T21:54:58.328Z,123.07
2023-02-05T21:57:25.989Z,125.13
2023-02-05T21:59:55.128Z,122.27
2023-02-05T22:02:22.816Z,125.97
2023-02-05T22:04:50.710Z,124.67
2023-02-05T22:07:18.363Z,127.90
2023-02-05T22:09:45.991Z,120.73
2023-02-05T22:12:13.739Z,124.40
2023-02-05T22:14:41.460Z,120.37
2023-02-05T22:17:10.404Z,113.03
2023-02-05T22:19:38.062Z,114.87
2023-02-05T22:22:05.744Z,110.07
2023-02-05T22:24:33.636Z,115.40
2023-02-05T22:27:01.403Z,112.33
2023-02-05T22:29:29.059Z,121.40
2023-02-05T22:31:56.799Z,107.67
2023-02-05T22:34:25.858Z,110.97
2023-02-05T22:36:53.529Z,110.33
2023-02-05T22:39:21.127Z,121.30
2023-02-05T22:41:48.840Z,118.47
2023-02-05T22:44:16.501Z,116.60
2023-02-05T22:46:45.290Z,130.30
2023-02-05T22:49:15.098Z,115.73
2023-02-05T22:51:45.129Z,120.40
2023-02-05T22:54:14.618Z,118.50
2023-02-05T22:56:42.512Z,113.50
2023-02-05T22:59:10.668Z,108.93
2023-02-05T23:01:39.178Z,118.67
2023-02-05T23:04:08.379Z,109.97
2023-02-05T23:06:38.122Z,106.07
2023-02-05T23:09:09.289Z,105.57
2023-02-05T23:11:37.327Z,107.87
2023-02-05T23:14:06.695Z,109.20
2023-02-05T23:16:36.894Z,101.43
2023-02-05T23:19:07.167Z,111.23
2023-02-05T23:21:36.723Z,107.97
2023-02-05T23:24:05.069Z,96.07
2023-02-05T23:26:37.033Z,118.03
2023-02-05T23:29:05.184Z,106.23
2023-02-05T23:31:33.380Z,111.63
2023-02-05T23:34:01.145Z,106.20
2023-02-05T23:36:28.837Z,112.63
2023-02-05T23:38:56.840Z,103.20
2023-02-05T23:41:36.923Z,110.23
2023-02-05T23:44:08.336Z,110.57
2023-02-05T23:46:36.807Z,111.23
2023-02-05T23:49:05.084Z,109.60
2023-02-05T23:51:33.549Z,113.73
2023-02-05T23:54:01.308Z,107.07
2023-02-05T23:56:29.461Z,104.30
2023-02-05T23:58:57.350Z,105.37
